Kirkconnel, United Kingdom
Current Conditions -  °F | °C
As of 9:20 PM on Tuesday 21 Oct 2014 (Local Time) from EGPK Reporting Station
Rain Showers Rain Showers  
Wind Chill: 40°   Ceiling: Unl
Heat Index: 48°   Visibility: 5mi
Dew Point: 37°   Wind: 29mph
Humidity: 66%   Direction: 290°WNW
Pressure: 29.97"   Gusts: NA
Location:  55.39°N, 4°W
Report Text: EGPK 212020Z 29025KT 8000 -SHRA SCT007 SCT022 09/03 Q1015
Loading
Personal Weather Stations






























Interactive Weather Map
Tropical Storm Tracking
New forecast layout! Learn more

10-Day Weather Forecast

Advertisements
Track Severe Weather on mobile